createdAt,value
2023-04-17T00:01:40.830Z,6.63
2023-04-17T00:04:11.567Z,6.70
2023-04-17T00:06:40.105Z,6.97
2023-04-17T00:09:07.111Z,6.43
2023-04-17T00:11:33.852Z,7.30
2023-04-17T00:14:00.974Z,7.03
2023-04-17T00:16:28.205Z,7.03
2023-04-17T00:18:55.684Z,7.60
2023-04-17T00:21:22.912Z,7.30
2023-04-17T00:23:49.746Z,6.90
2023-04-17T00:26:16.622Z,7.20
2023-04-17T00:28:43.476Z,6.87
2023-04-17T00:31:10.285Z,7.20
2023-04-17T00:33:37.150Z,6.57
2023-04-17T00:36:04.144Z,7.20
2023-04-17T00:38:31.011Z,6.23
2023-04-17T00:40:57.833Z,7.30
2023-04-17T00:43:24.937Z,7.57
2023-04-17T00:45:53.717Z,7.17
2023-04-17T00:48:24.070Z,7.60
2023-04-17T00:50:52.688Z,6.43
2023-04-17T00:53:19.851Z,7.10
2023-04-17T00:55:50.679Z,6.83
2023-04-17T00:58:17.824Z,6.33
2023-04-17T01:00:45.015Z,6.37
2023-04-17T01:03:12.479Z,7.43
2023-04-17T01:05:40.199Z,6.57
2023-04-17T01:08:07.259Z,6.97
2023-04-17T01:10:34.021Z,7.33
2023-04-17T01:13:07.908Z,7.77
2023-04-17T01:15:35.794Z,7.10
2023-04-17T01:18:03.113Z,8.33
2023-04-17T01:20:31.318Z,7.20
2023-04-17T01:22:58.965Z,7.47
2023-04-17T01:25:26.999Z,8.40
2023-04-17T01:27:54.135Z,7.77
2023-04-17T01:30:21.212Z,7.43
2023-04-17T01:32:47.997Z,7.77
2023-04-17T01:35:14.926Z,7.97
2023-04-17T01:37:41.755Z,7.70
2023-04-17T01:40:09.763Z,7.87
2023-04-17T01:42:36.750Z,7.70
2023-04-17T01:45:04.811Z,8.10
2023-04-17T01:47:31.717Z,8.47
2023-04-17T01:49:58.532Z,8.43
2023-04-17T01:52:25.477Z,8.40
2023-04-17T01:54:52.287Z,7.80
2023-04-17T01:57:19.097Z,7.63
2023-04-17T01:59:45.892Z,8.33
2023-04-17T02:02:12.729Z,8.43
2023-04-17T02:04:40.063Z,8.87
2023-04-17T02:07:06.924Z,8.57
2023-04-17T02:09:33.714Z,7.93
2023-04-17T02:12:01.060Z,8.50
2023-04-17T02:14:27.897Z,8.47
2023-04-17T02:16:54.837Z,9.23
2023-04-17T02:19:21.705Z,8.60
2023-04-17T02:21:48.417Z,8.80
2023-04-17T02:24:15.315Z,8.97
2023-04-17T02:26:42.027Z,9.10
2023-04-17T02:29:08.925Z,8.73
2023-04-17T02:31:35.903Z,8.30
2023-04-17T02:34:02.973Z,8.73
2023-04-17T02:36:29.744Z,8.77
2023-04-17T02:38:56.577Z,8.30
2023-04-17T02:41:23.400Z,9.47
2023-04-17T02:43:50.404Z,9.13
2023-04-17T02:46:17.217Z,8.50
2023-04-17T02:48:44.008Z,8.97
2023-04-17T02:51:10.767Z,7.83
2023-04-17T02:53:37.700Z,9.03
2023-04-17T02:56:04.811Z,8.27
2023-04-17T02:58:31.874Z,7.93
2023-04-17T03:01:02.835Z,8.07
2023-04-17T03:03:35.019Z,9.50
2023-04-17T03:06:02.720Z,8.80
2023-04-17T03:08:32.554Z,9.37
2023-04-17T03:10:59.862Z,9.10
2023-04-17T03:13:26.792Z,9.00
2023-04-17T03:15:53.544Z,8.80
2023-04-17T03:18:20.348Z,8.73
2023-04-17T03:20:47.170Z,9.17
2023-04-17T03:23:13.940Z,8.80
2023-04-17T03:25:40.829Z,8.90
2023-04-17T03:28:07.559Z,9.33
2023-04-17T03:30:34.285Z,9.30
2023-04-17T03:33:01.301Z,9.80
2023-04-17T03:35:28.194Z,8.90
2023-04-17T03:37:54.941Z,10.63
2023-04-17T03:40:21.737Z,9.30
2023-04-17T03:42:48.789Z,9.47
2023-04-17T03:45:16.875Z,9.60
2023-04-17T03:47:43.754Z,9.73
2023-04-17T03:50:10.837Z,9.30
2023-04-17T03:52:37.641Z,10.03
2023-04-17T03:55:04.984Z,9.50
2023-04-17T03:57:31.782Z,10.17
2023-04-17T03:59:58.650Z,9.80
2023-04-17T04:02:25.643Z,10.30
2023-04-17T04:04:53.777Z,9.77
2023-04-17T04:07:21.546Z,11.27
2023-04-17T04:09:48.302Z,10.80
2023-04-17T04:12:15.320Z,10.67
2023-04-17T04:14:42.662Z,10.63
2023-04-17T04:17:09.402Z,11.40
2023-04-17T04:19:36.235Z,10.67
2023-04-17T04:22:06.702Z,11.27
2023-04-17T04:24:34.154Z,11.03
2023-04-17T04:27:05.246Z,11.67
2023-04-17T04:29:32.641Z,10.97
2023-04-17T04:32:00.197Z,11.13
2023-04-17T04:34:30.137Z,11.37
2023-04-17T04:36:57.368Z,11.43
2023-04-17T04:39:24.257Z,10.87
2023-04-17T04:41:52.182Z,11.83
2023-04-17T04:44:19.935Z,10.37
2023-04-17T04:46:47.068Z,11.10
2023-04-17T04:49:13.987Z,11.27
2023-04-17T04:51:40.789Z,13.03
2023-04-17T04:54:08.472Z,11.63
2023-04-17T04:56:35.372Z,11.30
2023-04-17T04:59:02.157Z,10.90
2023-04-17T05:01:29.831Z,10.63
2023-04-17T05:03:57.075Z,10.80
2023-04-17T05:06:24.004Z,11.00
2023-04-17T05:08:51.383Z,11.27
2023-04-17T05:11:18.194Z,10.00
2023-04-17T05:13:45.058Z,10.70
2023-04-17T05:16:11.879Z,10.77
2023-04-17T05:18:38.704Z,10.53
2023-04-17T05:21:05.787Z,9.90
2023-04-17T05:23:32.530Z,10.17
2023-04-17T05:25:59.369Z,10.13
2023-04-17T05:28:27.266Z,10.90
2023-04-17T05:30:54.081Z,9.80
2023-04-17T05:33:20.920Z,9.90
2023-04-17T05:35:47.810Z,8.53
2023-04-17T05:38:14.734Z,10.30
2023-04-17T05:40:41.602Z,10.37
2023-04-17T05:43:10.289Z,11.90
2023-04-17T05:45:38.189Z,11.20
2023-04-17T05:48:05.934Z,12.23
2023-04-17T05:50:32.841Z,11.07
2023-04-17T05:52:59.768Z,9.83
2023-04-17T05:55:26.699Z,9.60
2023-04-17T05:57:53.443Z,10.70
2023-04-17T06:00:22.774Z,10.87
2023-04-17T06:02:49.905Z,10.07
2023-04-17T06:05:17.574Z,9.77
2023-04-17T06:07:44.441Z,10.83
2023-04-17T06:10:11.583Z,10.53
2023-04-17T06:12:38.573Z,9.90
2023-04-17T06:15:07.451Z,10.67
2023-04-17T06:17:37.453Z,23.00
2023-04-17T06:20:10.484Z,28.20
2023-04-17T06:22:38.358Z,24.00
2023-04-17T06:25:06.659Z,26.70
2023-04-17T06:27:35.889Z,26.73
2023-04-17T06:30:03.684Z,25.57
2023-04-17T06:32:30.591Z,10.40
2023-04-17T06:34:59.508Z,8.80
2023-04-17T06:37:26.895Z,8.33
2023-04-17T06:39:53.692Z,8.27
2023-04-17T06:42:20.699Z,7.70
2023-04-17T06:44:47.559Z,7.57
2023-04-17T06:47:14.400Z,7.23
2023-04-17T06:49:41.230Z,7.17
2023-04-17T06:52:08.215Z,6.80
2023-04-17T06:54:35.204Z,7.03
2023-04-17T06:57:06.125Z,7.43
2023-04-17T06:59:34.197Z,7.23
2023-04-17T07:02:02.312Z,7.60
2023-04-17T07:04:31.202Z,7.13
2023-04-17T07:06:58.610Z,6.77
2023-04-17T07:09:26.573Z,7.53
2023-04-17T07:11:54.374Z,7.00
2023-04-17T07:14:23.035Z,6.43
2023-04-17T07:16:50.362Z,8.27
2023-04-17T07:19:17.401Z,6.60
2023-04-17T07:21:44.177Z,6.30
2023-04-17T07:24:11.055Z,5.97
2023-04-17T07:26:40.291Z,5.97
2023-04-17T07:29:07.323Z,6.47
2023-04-17T07:31:34.382Z,5.50
2023-04-17T07:34:01.354Z,7.77
2023-04-17T07:36:30.047Z,5.47
2023-04-17T07:38:57.035Z,5.10
2023-04-17T07:41:23.868Z,5.63
2023-04-17T07:43:50.730Z,6.47
2023-04-17T07:46:17.613Z,5.70
2023-04-17T07:48:44.536Z,5.30
2023-04-17T07:51:11.610Z,4.80
2023-04-17T07:53:38.727Z,5.10
2023-04-17T07:56:06.769Z,4.70
2023-04-17T07:58:35.776Z,4.53
2023-04-17T08:01:05.668Z,4.57
2023-04-17T08:03:32.960Z,4.40
2023-04-17T08:06:00.292Z,4.10
2023-04-17T08:08:27.326Z,4.37
2023-04-17T08:10:54.125Z,4.10
2023-04-17T08:13:21.025Z,3.77
2023-04-17T08:15:48.022Z,4.27
2023-04-17T08:18:14.923Z,3.97
2023-04-17T08:20:41.959Z,3.67
2023-04-17T08:23:08.796Z,4.10
2023-04-17T08:25:35.737Z,3.57
2023-04-17T08:28:02.519Z,3.80
2023-04-17T08:30:29.359Z,4.07
2023-04-17T08:32:57.622Z,4.07
2023-04-17T08:35:25.511Z,4.87
2023-04-17T08:37:53.020Z,4.50
2023-04-17T08:40:23.602Z,5.33
2023-04-17T08:42:51.940Z,5.07
2023-04-17T08:45:20.024Z,4.70
2023-04-17T08:47:47.098Z,5.30
2023-04-17T08:50:16.489Z,5.00
2023-04-17T08:52:52.820Z,5.00
2023-04-17T08:55:25.552Z,5.43
2023-04-17T08:58:04.062Z,5.17
2023-04-17T09:00:33.271Z,5.13
2023-04-17T09:03:04.008Z,6.17
2023-04-17T09:05:35.301Z,5.30
2023-04-17T09:08:14.372Z,6.87
2023-04-17T09:10:46.022Z,6.00
2023-04-17T09:13:21.826Z,6.10
2023-04-17T09:16:04.908Z,6.47
2023-04-17T09:18:32.934Z,5.43
2023-04-17T09:21:01.229Z,5.60
2023-04-17T09:23:30.169Z,5.97
2023-04-17T09:26:21.049Z,6.23
2023-04-17T09:29:07.723Z,5.70
2023-04-17T09:31:36.305Z,6.27
2023-04-17T09:34:08.735Z,5.77
2023-04-17T09:36:40.121Z,5.63
2023-04-17T09:39:20.425Z,5.33
2023-04-17T09:41:47.286Z,5.37
2023-04-17T09:44:26.766Z,6.13
2023-04-17T09:46:53.957Z,6.20
2023-04-17T09:49:20.792Z,6.23
2023-04-17T09:51:47.891Z,5.83
2023-04-17T09:54:15.937Z,6.20
2023-04-17T09:56:43.733Z,5.80
2023-04-17T09:59:11.101Z,5.40
2023-04-17T10:01:38.450Z,6.20
2023-04-17T10:04:06.061Z,6.77
2023-04-17T10:06:34.281Z,5.40
2023-04-17T10:09:02.875Z,6.43
2023-04-17T10:11:36.256Z,5.67
2023-04-17T10:14:19.629Z,6.10
2023-04-17T10:16:48.205Z,5.90
2023-04-17T10:19:35.660Z,5.70
2023-04-17T10:22:20.704Z,6.17
2023-04-17T10:24:52.821Z,6.10
2023-04-17T10:27:25.963Z,5.63
2023-04-17T10:29:53.682Z,6.40
2023-04-17T10:32:21.767Z,5.87
2023-04-17T10:34:48.826Z,5.93
2023-04-17T10:37:16.025Z,6.27
2023-04-17T10:40:02.305Z,5.67
2023-04-17T10:42:30.423Z,6.00
2023-04-17T10:44:59.768Z,6.20
2023-04-17T10:47:36.556Z,6.10
2023-04-17T10:50:07.576Z,5.93
2023-04-17T10:53:00.300Z,6.07
2023-04-17T10:55:27.427Z,5.93
2023-04-17T10:57:57.521Z,6.10
2023-04-17T11:00:32.216Z,6.17
2023-04-17T11:03:01.354Z,6.60
2023-04-17T11:05:29.113Z,6.33
2023-04-17T11:07:56.474Z,6.27
2023-04-17T11:10:23.410Z,6.30
2023-04-17T11:12:58.311Z,6.67
2023-04-17T11:15:34.264Z,6.57
2023-04-17T11:18:03.050Z,6.57
2023-04-17T11:20:31.736Z,7.20
2023-04-17T11:23:02.598Z,6.33
2023-04-17T11:25:31.689Z,7.57
2023-04-17T11:27:59.562Z,6.90
2023-04-17T11:30:35.201Z,7.57
2023-04-17T11:33:06.262Z,6.77
2023-04-17T11:35:35.247Z,6.63
2023-04-17T11:38:22.570Z,5.83
2023-04-17T11:40:58.640Z,5.23
2023-04-17T11:43:26.455Z,5.77
2023-04-17T11:46:02.487Z,5.63
2023-04-17T11:48:32.407Z,6.20
2023-04-17T11:51:03.205Z,6.20
2023-04-17T11:53:32.072Z,6.03
2023-04-17T11:56:15.701Z,6.07
2023-04-17T11:58:46.300Z,4.90
2023-04-17T12:01:13.603Z,5.40
2023-04-17T12:03:42.991Z,7.00
2023-04-17T12:06:13.290Z,6.40
2023-04-17T12:08:50.283Z,6.27
2023-04-17T12:11:25.840Z,6.30
2023-04-17T12:13:53.471Z,6.80
2023-04-17T12:16:20.765Z,5.97
2023-04-17T12:18:48.116Z,6.73
2023-04-17T12:21:15.001Z,6.80
2023-04-17T12:23:42.238Z,8.20
2023-04-17T12:26:09.832Z,7.70
2023-04-17T12:28:36.977Z,6.53
2023-04-17T12:31:04.941Z,5.97
2023-04-17T12:33:32.924Z,4.70
2023-04-17T12:36:05.221Z,4.43
2023-04-17T12:38:32.393Z,4.80
2023-04-17T12:40:59.412Z,5.00
2023-04-17T12:43:26.296Z,5.27
2023-04-17T12:45:53.569Z,6.07
2023-04-17T12:48:20.486Z,5.80
2023-04-17T12:50:47.357Z,5.67
2023-04-17T12:53:15.434Z,5.70
2023-04-17T12:55:44.069Z,5.30
2023-04-17T12:58:13.087Z,5.87
2023-04-17T13:00:44.337Z,6.37
2023-04-17T13:03:12.264Z,5.97
2023-04-17T13:05:39.662Z,6.07
2023-04-17T13:08:06.600Z,6.90
2023-04-17T13:10:34.357Z,6.77
2023-04-17T13:13:02.390Z,6.33
2023-04-17T13:15:29.348Z,5.77
2023-04-17T13:17:56.263Z,5.90
2023-04-17T13:20:23.436Z,6.30
2023-04-17T13:22:50.181Z,5.43
2023-04-17T13:25:17.204Z,5.07
2023-04-17T13:27:44.107Z,4.80
2023-04-17T13:30:12.724Z,4.67
2023-04-17T13:32:40.587Z,4.67
2023-04-17T13:35:09.714Z,5.10
2023-04-17T13:37:36.609Z,6.40
2023-04-17T13:40:06.613Z,8.33
2023-04-17T13:42:33.428Z,6.63
2023-04-17T13:45:00.175Z,6.20
2023-04-17T13:47:27.233Z,6.57
2023-04-17T13:49:54.153Z,5.83
2023-04-17T13:52:21.118Z,5.93
2023-04-17T13:54:48.524Z,6.10
2023-04-17T13:57:18.613Z,6.27
2023-04-17T13:59:45.660Z,6.20
2023-04-17T14:02:12.595Z,5.73
2023-04-17T14:04:39.542Z,5.70
2023-04-17T14:07:06.548Z,6.13
2023-04-17T14:09:33.485Z,6.27
2023-04-17T14:12:00.537Z,6.00
2023-04-17T14:14:28.090Z,6.20
2023-04-17T14:16:54.913Z,5.80
2023-04-17T14:19:21.696Z,5.77
2023-04-17T14:21:48.461Z,6.30
2023-04-17T14:24:15.435Z,11.50
2023-04-17T14:26:42.692Z,6.57
2023-04-17T14:29:10.871Z,5.63
2023-04-17T14:31:38.014Z,5.93
2023-04-17T14:34:04.805Z,6.33
2023-04-17T14:36:31.667Z,6.03
2023-04-17T14:38:59.109Z,6.33
2023-04-17T14:41:30.025Z,6.80
2023-04-17T14:43:56.956Z,6.10
2023-04-17T14:46:23.878Z,6.53
2023-04-17T14:48:55.358Z,5.93
2023-04-17T14:51:23.950Z,6.63
2023-04-17T14:53:53.038Z,5.60
2023-04-17T14:56:21.566Z,6.83
2023-04-17T14:58:48.625Z,6.10
2023-04-17T15:01:15.694Z,6.13
2023-04-17T15:03:47.428Z,5.57
2023-04-17T15:06:15.939Z,5.63
2023-04-17T15:08:42.980Z,5.70
2023-04-17T15:11:10.493Z,5.90
2023-04-17T15:13:37.671Z,5.57
2023-04-17T15:16:04.949Z,5.70
2023-04-17T15:18:31.936Z,5.10
2023-04-17T15:20:59.036Z,5.40
2023-04-17T15:23:26.665Z,4.90
2023-04-17T15:25:57.536Z,5.67
2023-04-17T15:28:25.522Z,5.03
2023-04-17T15:30:52.462Z,5.17
2023-04-17T15:33:19.573Z,5.23
2023-04-17T15:35:46.449Z,4.70
2023-04-17T15:38:13.433Z,4.77
2023-04-17T15:40:40.267Z,4.60
2023-04-17T15:43:07.013Z,4.43
2023-04-17T15:45:33.949Z,6.53
2023-04-17T15:48:01.761Z,5.57
2023-04-17T15:50:28.838Z,4.67
2023-04-17T15:52:55.694Z,3.90
2023-04-17T15:55:22.596Z,4.80
2023-04-17T15:57:49.396Z,4.57
2023-04-17T16:00:16.740Z,4.07
2023-04-17T16:02:47.545Z,4.20
2023-04-17T16:05:15.677Z,4.27
2023-04-17T16:07:42.603Z,3.67
2023-04-17T16:10:13.912Z,3.87
2023-04-17T16:12:45.194Z,3.40
2023-04-17T16:15:13.038Z,3.80
2023-04-17T16:17:39.935Z,4.00
2023-04-17T16:20:07.277Z,3.40
2023-04-17T16:22:34.199Z,3.67
2023-04-17T16:25:01.855Z,3.40
2023-04-17T16:27:29.725Z,3.10
2023-04-17T16:29:56.545Z,3.30
2023-04-17T16:32:25.044Z,3.87
2023-04-17T16:34:52.486Z,4.27
2023-04-17T16:37:19.358Z,3.80
2023-04-17T16:39:46.202Z,3.57
2023-04-17T16:42:13.142Z,3.27
2023-04-17T16:44:39.944Z,3.00
2023-04-17T16:47:13.630Z,3.63
2023-04-17T16:49:41.314Z,3.33
2023-04-17T16:52:08.201Z,3.33
2023-04-17T16:54:35.009Z,3.00
2023-04-17T16:57:02.210Z,3.20
2023-04-17T16:59:28.978Z,3.20
2023-04-17T17:01:55.873Z,3.13
2023-04-17T17:04:22.857Z,2.67
2023-04-17T17:06:49.689Z,2.90
2023-04-17T17:09:16.547Z,2.97
2023-04-17T17:11:43.363Z,2.67
2023-04-17T17:14:10.218Z,2.70
2023-04-17T17:16:37.017Z,3.10
2023-04-17T17:19:03.993Z,2.87
2023-04-17T17:21:31.144Z,2.50
2023-04-17T17:24:00.683Z,2.50
2023-04-17T17:26:27.471Z,2.97
2023-04-17T17:28:55.465Z,3.03
2023-04-17T17:31:22.743Z,3.13
2023-04-17T17:33:50.248Z,3.13
2023-04-17T17:36:17.634Z,3.10
2023-04-17T17:38:45.197Z,4.53
2023-04-17T17:41:12.039Z,4.00
2023-04-17T17:43:38.912Z,4.00
2023-04-17T17:46:05.930Z,4.43
2023-04-17T17:48:34.409Z,4.03
2023-04-17T17:51:01.401Z,4.10
2023-04-17T17:53:28.405Z,4.10
2023-04-17T17:55:56.515Z,4.07
2023-04-17T17:58:23.698Z,4.53
2023-04-17T18:00:50.890Z,4.03
2023-04-17T18:03:18.442Z,3.80
2023-04-17T18:05:57.711Z,3.70
2023-04-17T18:08:24.519Z,4.40
2023-04-17T18:10:51.289Z,3.90
2023-04-17T18:13:18.218Z,5.60
2023-04-17T18:15:44.990Z,5.57
2023-04-17T18:18:11.800Z,5.03
2023-04-17T18:20:39.600Z,5.07
2023-04-17T18:23:06.564Z,5.83
2023-04-17T18:25:35.546Z,5.20
2023-04-17T18:28:03.707Z,5.43
2023-04-17T18:30:31.074Z,5.37
2023-04-17T18:32:57.924Z,5.27
2023-04-17T18:35:24.838Z,5.37
2023-04-17T18:37:53.066Z,5.20
2023-04-17T18:40:19.850Z,3.97
2023-04-17T18:42:46.802Z,3.73
2023-04-17T18:45:15.940Z,3.27
2023-04-17T18:47:43.154Z,2.87
2023-04-17T18:50:11.160Z,2.80
2023-04-17T18:52:40.139Z,2.97
2023-04-17T18:55:07.993Z,2.83
2023-04-17T18:57:34.874Z,3.00
2023-04-17T19:00:01.651Z,2.83
2023-04-17T19:02:28.480Z,3.00
2023-04-17T19:04:56.325Z,3.07
2023-04-17T19:07:23.211Z,2.93
2023-04-17T19:09:49.940Z,3.47
2023-04-17T19:12:17.169Z,3.13
2023-04-17T19:14:43.954Z,3.50
2023-04-17T19:17:10.827Z,3.10
2023-04-17T19:19:37.677Z,3.53
2023-04-17T19:22:04.494Z,3.17
2023-04-17T19:24:32.089Z,3.17
2023-04-17T19:26:58.852Z,3.53
2023-04-17T19:29:25.537Z,3.97
2023-04-17T19:31:52.385Z,3.57
2023-04-17T19:34:19.185Z,4.33
2023-04-17T19:36:46.102Z,4.07
2023-04-17T19:39:13.193Z,3.83
2023-04-17T19:41:40.248Z,3.63
2023-04-17T19:44:07.099Z,3.83
2023-04-17T19:46:33.905Z,4.23
2023-04-17T19:49:00.807Z,4.20
2023-04-17T19:51:28.040Z,3.60
2023-04-17T19:53:54.826Z,3.53
2023-04-17T19:56:21.672Z,4.20
2023-04-17T19:58:48.415Z,4.13
2023-04-17T20:01:15.969Z,4.50
2023-04-17T20:03:43.735Z,4.53
2023-04-17T20:06:10.779Z,4.60
2023-04-17T20:08:37.530Z,5.00
2023-04-17T20:11:06.261Z,5.07
2023-04-17T20:13:33.318Z,4.67
2023-04-17T20:16:00.888Z,5.40
2023-04-17T20:18:27.720Z,5.37
2023-04-17T20:20:54.557Z,5.83
2023-04-17T20:23:21.865Z,5.73
2023-04-17T20:25:48.725Z,5.37
2023-04-17T20:28:15.889Z,6.30
2023-04-17T20:30:42.768Z,6.30
2023-04-17T20:33:09.649Z,6.43
2023-04-17T20:35:36.638Z,7.07
2023-04-17T20:38:03.555Z,7.37
2023-04-17T20:40:30.401Z,7.60
2023-04-17T20:42:59.857Z,7.37
2023-04-17T20:45:26.879Z,7.50
2023-04-17T20:47:56.926Z,7.90
2023-04-17T20:50:25.034Z,8.60
2023-04-17T20:52:51.801Z,9.27
2023-04-17T20:55:19.924Z,8.57
2023-04-17T20:57:47.629Z,8.97
2023-04-17T21:00:14.896Z,9.33
2023-04-17T21:02:42.050Z,9.67
2023-04-17T21:05:09.313Z,9.50
2023-04-17T21:07:36.980Z,8.73
2023-04-17T21:10:04.295Z,9.53
2023-04-17T21:12:32.986Z,10.10
2023-04-17T21:14:59.892Z,10.27
2023-04-17T21:17:26.867Z,10.57
2023-04-17T21:19:55.969Z,9.53
2023-04-17T21:22:22.939Z,10.37
2023-04-17T21:24:49.766Z,11.33
2023-04-17T21:27:16.634Z,10.83
2023-04-17T21:29:43.491Z,11.23
2023-04-17T21:32:10.461Z,11.57
2023-04-17T21:34:37.383Z,11.70
2023-04-17T21:37:05.026Z,12.37
2023-04-17T21:39:33.279Z,12.13
2023-04-17T21:42:00.674Z,12.20
2023-04-17T21:44:27.720Z,11.90
2023-04-17T21:46:54.537Z,11.90
2023-04-17T21:49:22.257Z,12.07
2023-04-17T21:51:48.986Z,12.00
2023-04-17T21:54:16.089Z,11.70
2023-04-17T21:56:42.977Z,12.03
2023-04-17T21:59:09.743Z,12.73
2023-04-17T22:01:36.679Z,11.23
2023-04-17T22:04:03.767Z,12.00
2023-04-17T22:06:30.568Z,12.67
2023-04-17T22:08:57.381Z,12.43
2023-04-17T22:11:24.144Z,12.27
2023-04-17T22:13:51.030Z,11.50
2023-04-17T22:16:17.951Z,11.87
2023-04-17T22:18:45.537Z,11.73
2023-04-17T22:21:13.363Z,13.07
2023-04-17T22:23:40.330Z,11.97
2023-04-17T22:26:07.092Z,11.43
2023-04-17T22:28:33.807Z,12.77
2023-04-17T22:31:00.718Z,12.77
2023-04-17T22:33:27.894Z,11.93
2023-04-17T22:35:54.662Z,12.57
2023-04-17T22:38:21.684Z,12.53
2023-04-17T22:40:48.796Z,12.87
2023-04-17T22:43:15.685Z,13.03
2023-04-17T22:45:43.282Z,12.30
2023-04-17T22:48:10.085Z,12.10
2023-04-17T22:50:38.154Z,12.00
2023-04-17T22:53:05.686Z,12.20
2023-04-17T22:55:32.717Z,12.30
2023-04-17T22:58:01.761Z,13.10
2023-04-17T23:00:29.687Z,12.10
2023-04-17T23:02:56.641Z,12.03
2023-04-17T23:05:23.710Z,11.87
2023-04-17T23:07:50.679Z,11.67
2023-04-17T23:10:17.935Z,11.47
2023-04-17T23:12:44.736Z,12.30
2023-04-17T23:15:12.376Z,12.30
2023-04-17T23:17:39.212Z,12.47
2023-04-17T23:20:06.629Z,11.63
2023-04-17T23:22:33.452Z,11.37
2023-04-17T23:25:00.604Z,11.67
2023-04-17T23:27:27.391Z,12.70
2023-04-17T23:29:54.258Z,12.90
2023-04-17T23:32:21.250Z,11.57
2023-04-17T23:34:48.070Z,12.13
2023-04-17T23:37:15.028Z,11.87
2023-04-17T23:39:42.719Z,11.93
2023-04-17T23:42:09.756Z,11.93
2023-04-17T23:44:36.614Z,11.37
2023-04-17T23:47:04.245Z,11.83
2023-04-17T23:49:31.149Z,11.30
2023-04-17T23:51:57.952Z,12.93
2023-04-17T23:54:25.553Z,12.23
2023-04-17T23:56:52.443Z,12.03
2023-04-17T23:59:19.708Z,12.13
